Time;durP1;ratioP1;P1;durP2;ratioP2;P2;SDS_P1;SDS_P2;PMS_P1;PMS_P2;Temp;Humidity;BMP_temperature;BMP_pressure;BME280_temperature;BME280_humidity;BME280_pressure;Samples;Min_cycle;Max_cycle;Signal;HPM_P1;HPM_P2
2021/01/24 00:02:09;;;;;;;6.83;4.60;;;7.30;94.40;;;;;;5114916;28;20621;-53
2021/01/24 00:04:36;;;;;;;3.70;3.07;;;7.20;94.20;;;;;;5114995;28;20618;-53
2021/01/24 00:07:03;;;;;;;6.03;3.47;;;7.10;94.60;;;;;;5113930;28;20730;-53
2021/01/24 00:09:30;;;;;;;3.50;3.23;;;7.10;95.00;;;;;;5112847;28;20687;-53
2021/01/24 00:11:56;;;;;;;3.90;3.57;;;7.00;95.20;;;;;;5112620;28;20697;-52
2021/01/24 00:14:23;;;;;;;3.80;3.40;;;7.00;95.50;;;;;;5113513;28;20620;-52
2021/01/24 00:16:50;;;;;;;4.23;3.83;;;6.90;95.50;;;;;;5113156;28;20649;-54
2021/01/24 00:19:17;;;;;;;4.00;3.70;;;6.90;95.70;;;;;;5113184;28;20653;-52
2021/01/24 00:21:44;;;;;;;3.20;3.00;;;6.90;95.90;;;;;;5113585;28;20629;-53
2021/01/24 00:24:11;;;;;;;4.93;4.47;;;6.90;96.10;;;;;;5113122;28;20664;-54
2021/01/24 00:26:38;;;;;;;4.70;4.23;;;6.90;95.90;;;;;;5112517;28;20693;-53
2021/01/24 00:29:05;;;;;;;3.90;3.60;;;6.90;96.00;;;;;;5112144;28;20759;-52
2021/01/24 00:31:32;;;;;;;4.47;3.00;;;6.90;96.20;;;;;;5113647;28;20624;-52
2021/01/24 00:33:58;;;;;;;4.90;4.50;;;6.80;96.10;;;;;;5113722;28;20642;-53
2021/01/24 00:36:26;;;;;;;4.80;4.50;;;6.80;96.30;;;;;;5113316;28;20692;-52
2021/01/24 00:38:53;;;;;;;5.50;5.07;;;6.70;96.40;;;;;;5113580;28;20633;-52
2021/01/24 00:41:19;;;;;;;6.33;5.83;;;6.60;96.80;;;;;;5113594;28;20712;-54
2021/01/24 00:43:46;;;;;;;4.23;3.93;;;6.70;96.90;;;;;;5112470;28;20982;-53
2021/01/24 00:46:13;;;;;;;6.20;5.70;;;6.70;96.90;;;;;;5112466;28;21253;-52
2021/01/24 00:48:40;;;;;;;7.40;6.80;;;6.70;97.00;;;;;;5111750;28;21247;-52
2021/01/24 00:51:07;;;;;;;7.20;6.60;;;6.70;97.10;;;;;;5112148;28;21188;-53
2021/01/24 00:53:34;;;;;;;8.53;6.87;;;6.70;97.20;;;;;;5112017;28;21242;-53
2021/01/24 00:56:01;;;;;;;5.60;4.97;;;6.70;97.20;;;;;;5112387;28;21046;-53
2021/01/24 00:58:28;;;;;;;5.87;4.23;;;6.50;97.40;;;;;;5112023;28;20626;-53
2021/01/24 01:00:55;;;;;;;6.63;6.10;;;6.20;97.50;;;;;;5111930;28;20615;-52
2021/01/24 01:03:21;;;;;;;4.53;4.13;;;6.10;98.10;;;;;;5093850;28;20995;-52
2021/01/24 01:05:48;;;;;;;4.17;3.87;;;6.10;98.50;;;;;;5112011;28;20645;-54
2021/01/24 01:08:16;;;;;;;6.60;6.00;;;6.10;98.80;;;;;;5112496;28;20662;-54
2021/01/24 01:10:43;;;;;;;6.00;5.40;;;6.10;99.00;;;;;;5111486;28;21038;-54
2021/01/24 01:13:10;;;;;;;5.63;5.13;;;6.10;98.80;;;;;;5112088;28;20660;-54
2021/01/24 01:15:37;;;;;;;5.17;4.67;;;6.00;98.80;;;;;;5111872;28;20660;-54
2021/01/24 01:18:04;;;;;;;3.40;3.10;;;5.90;98.90;;;;;;5112779;28;20621;-53
2021/01/24 01:20:31;;;;;;;5.80;3.83;;;5.90;99.00;;;;;;5111999;28;20648;-54
2021/01/24 01:22:58;;;;;;;5.90;3.50;;;5.90;99.10;;;;;;5111524;28;21014;-54
2021/01/24 01:25:25;;;;;;;4.50;4.07;;;6.00;99.30;;;;;;5112274;28;21002;-54
2021/01/24 01:27:52;;;;;;;4.10;3.20;;;5.90;99.10;;;;;;5111297;28;20975;-52
2021/01/24 01:30:20;;;;;;;2.33;2.13;;;5.90;98.90;;;;;;5111519;28;20725;-53
2021/01/24 01:32:47;;;;;;;2.33;2.10;;;5.90;98.80;;;;;;5111768;28;20635;-54
2021/01/24 01:35:13;;;;;;;2.10;2.00;;;5.70;98.50;;;;;;5093267;28;21106;-52
2021/01/24 01:37:40;;;;;;;2.47;2.20;;;5.70;98.90;;;;;;5111502;28;20688;-53
2021/01/24 01:40:08;;;;;;;3.70;2.73;;;5.60;99.00;;;;;;5112226;28;20653;-54
2021/01/24 01:42:34;;;;;;;2.47;2.00;;;5.60;99.00;;;;;;5111972;28;20759;-53
2021/01/24 01:45:02;;;;;;;2.30;2.10;;;5.60;99.20;;;;;;5111552;28;20641;-54
2021/01/24 01:47:29;;;;;;;2.80;2.10;;;5.60;99.40;;;;;;5110572;28;21750;-53
2021/01/24 01:49:56;;;;;;;2.80;1.70;;;5.70;99.20;;;;;;5093538;28;20656;-53
2021/01/24 01:52:24;;;;;;;2.30;1.90;;;5.70;99.00;;;;;;5102633;28;20659;-53
2021/01/24 01:54:50;;;;;;;3.67;2.40;;;5.70;98.70;;;;;;5109288;28;20733;-53
2021/01/24 01:57:17;;;;;;;1.90;1.57;;;5.70;98.90;;;;;;5093160;28;20644;-53
2021/01/24 01:59:44;;;;;;;1.90;1.80;;;5.50;98.60;;;;;;5111326;28;21166;-53
2021/01/24 02:02:19;;;;;;;1.60;1.30;;;5.60;99.00;;;;;;5111250;28;20620;-54
2021/01/24 02:04:49;;;;;;;2.60;2.40;;;5.40;98.60;;;;;;5112561;28;20635;-54
2021/01/24 02:07:17;;;;;;;2.87;1.60;;;5.50;99.00;;;;;;5113052;28;20691;-54
2021/01/24 02:09:46;;;;;;;2.43;1.70;;;5.50;99.00;;;;;;5111978;28;20687;-51
2021/01/24 02:12:16;;;;;;;1.67;1.57;;;5.50;98.80;;;;;;5092144;28;20647;-53
2021/01/24 02:14:48;;;;;;;2.07;1.97;;;5.50;98.90;;;;;;5090694;28;20656;-54
2021/01/24 02:17:18;;;;;;;2.33;1.30;;;5.60;98.60;;;;;;5090218;28;21259;-53
2021/01/24 02:19:54;;;;;;;1.63;1.50;;;5.70;98.80;;;;;;5096538;28;20647;-53
2021/01/24 02:22:21;;;;;;;0.97;0.97;;;5.70;98.30;;;;;;5110834;28;20666;-53
2021/01/24 02:24:50;;;;;;;1.60;1.50;;;5.70;98.10;;;;;;5110655;28;20621;-54
2021/01/24 02:27:20;;;;;;;2.10;1.90;;;5.60;98.00;;;;;;5110029;28;20732;-54
2021/01/24 02:29:51;;;;;;;1.63;1.47;;;5.60;98.30;;;;;;5110723;28;20668;-54
2021/01/24 02:32:19;;;;;;;3.00;1.70;;;5.70;98.40;;;;;;5110323;28;20677;-51
2021/01/24 02:34:46;;;;;;;2.40;1.83;;;5.80;98.20;;;;;;5110479;28;20742;-54
2021/01/24 02:37:13;;;;;;;2.30;2.13;;;5.80;98.20;;;;;;5089979;28;20689;-53
2021/01/24 02:39:40;;;;;;;2.77;2.57;;;5.90;98.10;;;;;;5090467;28;20628;-54
2021/01/24 02:42:06;;;;;;;2.27;2.07;;;5.90;98.00;;;;;;5099096;28;20663;-54
2021/01/24 02:44:33;;;;;;;2.50;2.30;;;6.00;97.60;;;;;;5110312;28;20652;-53
2021/01/24 02:47:00;;;;;;;1.47;1.37;;;6.00;97.70;;;;;;5110262;28;20727;-53
2021/01/24 02:49:28;;;;;;;1.47;1.37;;;6.00;97.80;;;;;;5110092;28;20660;-54
2021/01/24 02:51:55;;;;;;;2.27;2.07;;;5.90;97.30;;;;;;5109648;28;21252;-54
2021/01/24 02:54:22;;;;;;;1.67;1.57;;;5.80;97.40;;;;;;5094711;28;20707;-53
2021/01/24 02:56:48;;;;;;;2.07;1.80;;;5.90;97.80;;;;;;5110542;28;20711;-52
2021/01/24 02:59:15;;;;;;;1.60;1.50;;;5.80;97.20;;;;;;5110104;28;20653;-53
2021/01/24 03:01:42;;;;;;;1.53;1.43;;;5.70;97.10;;;;;;5110585;28;21182;-53
2021/01/24 03:04:09;;;;;;;1.40;1.30;;;5.60;97.20;;;;;;5109923;28;20662;-52
2021/01/24 03:06:36;;;;;;;1.90;1.53;;;5.60;97.20;;;;;;5113021;28;20687;-53
2021/01/24 03:09:03;;;;;;;1.07;0.90;;;5.40;97.40;;;;;;5114170;28;20746;-53
2021/01/24 03:11:30;;;;;;;1.57;1.47;;;5.40;97.50;;;;;;5114680;28;20691;-53
2021/01/24 03:13:59;;;;;;;1.50;1.40;;;5.20;97.70;;;;;;5114308;28;21027;-52
2021/01/24 03:16:26;;;;;;;1.20;1.13;;;5.30;97.80;;;;;;5113775;28;20813;-54
2021/01/24 03:18:53;;;;;;;1.80;1.70;;;5.30;97.80;;;;;;5113359;28;20715;-53
2021/01/24 03:21:20;;;;;;;1.10;0.90;;;5.20;97.00;;;;;;5114267;28;20619;-53
2021/01/24 03:23:47;;;;;;;1.20;1.10;;;5.10;97.20;;;;;;5110307;28;21193;-54
2021/01/24 03:26:14;;;;;;;0.97;0.90;;;5.10;97.20;;;;;;5093660;28;20680;-54
2021/01/24 03:28:41;;;;;;;1.00;1.00;;;5.00;97.30;;;;;;5093670;28;20624;-52
2021/01/24 03:31:07;;;;;;;0.60;0.60;;;5.00;97.50;;;;;;5093610;28;21176;-53
2021/01/24 03:33:34;;;;;;;1.77;0.53;;;5.00;97.50;;;;;;5104754;28;20662;-53
2021/01/24 03:36:02;;;;;;;0.67;0.63;;;4.90;97.20;;;;;;5113929;28;20697;-53
2021/01/24 03:38:28;;;;;;;0.60;0.60;;;4.80;97.40;;;;;;5113774;28;20652;-54
2021/01/24 03:40:56;;;;;;;1.63;1.10;;;4.70;97.80;;;;;;5113954;28;21271;-52
2021/01/24 03:43:23;;;;;;;1.10;0.80;;;4.70;97.90;;;;;;5112708;28;20644;-53
2021/01/24 03:45:49;;;;;;;0.50;0.50;;;4.80;98.20;;;;;;5113605;28;21138;-52
2021/01/24 03:48:16;;;;;;;0.73;0.60;;;4.80;98.10;;;;;;5113695;28;20697;-53
2021/01/24 03:50:43;;;;;;;0.67;0.67;;;4.70;98.00;;;;;;5113325;28;20683;-54
2021/01/24 03:53:09;;;;;;;0.50;0.50;;;4.70;98.10;;;;;;5112705;28;21003;-53
2021/01/24 03:55:36;;;;;;;0.60;0.60;;;4.70;98.00;;;;;;5112851;28;21025;-54
2021/01/24 03:58:04;;;;;;;0.50;0.40;;;4.70;98.20;;;;;;5113633;28;20615;-54
2021/01/24 04:00:31;;;;;;;0.70;0.43;;;4.60;98.20;;;;;;5112515;28;20651;-53
2021/01/24 04:02:57;;;;;;;0.60;0.40;;;4.50;97.90;;;;;;5109867;28;20252;-51
2021/01/24 04:05:24;;;;;;;0.40;0.40;;;4.50;98.10;;;;;;5113640;28;20662;-53
2021/01/24 04:07:51;;;;;;;0.77;0.70;;;4.50;98.40;;;;;;5102202;28;21207;-53
2021/01/24 04:10:17;;;;;;;0.50;0.43;;;4.50;98.00;;;;;;5108004;28;20687;-53
2021/01/24 04:12:44;;;;;;;0.60;0.57;;;4.50;97.90;;;;;;5113114;28;20654;-54
2021/01/24 04:15:13;;;;;;;0.60;0.60;;;4.50;98.00;;;;;;5113356;28;20627;-54
2021/01/24 04:17:40;;;;;;;0.80;0.53;;;4.50;97.90;;;;;;5111746;28;21004;-52
2021/01/24 04:20:08;;;;;;;2.10;0.80;;;4.50;97.80;;;;;;5100849;28;20729;-53
2021/01/24 04:22:34;;;;;;;0.50;0.50;;;4.40;97.50;;;;;;5092918;28;20668;-54
2021/01/24 04:25:01;;;;;;;1.00;0.70;;;4.40;97.60;;;;;;5095896;28;20666;-53
2021/01/24 04:27:28;;;;;;;1.00;0.60;;;4.40;97.80;;;;;;5105395;28;20690;-52
2021/01/24 04:29:55;;;;;;;1.10;1.00;;;4.40;97.70;;;;;;5094266;28;20619;-54
2021/01/24 04:32:22;;;;;;;0.90;0.80;;;4.30;97.70;;;;;;5112807;28;20998;-54
2021/01/24 04:34:49;;;;;;;0.73;0.70;;;4.30;97.70;;;;;;5112998;28;20638;-52
2021/01/24 04:37:16;;;;;;;1.10;0.90;;;4.30;97.70;;;;;;5112682;28;20690;-53
2021/01/24 04:39:42;;;;;;;0.97;0.87;;;4.40;97.90;;;;;;5112238;28;20958;-53
2021/01/24 04:42:09;;;;;;;1.17;0.93;;;4.40;97.50;;;;;;5112609;28;20643;-53
2021/01/24 04:44:36;;;;;;;1.70;0.83;;;4.40;97.30;;;;;;5100086;28;20997;-53
2021/01/24 04:47:03;;;;;;;4.73;1.43;;;4.30;97.00;;;;;;5091822;28;21076;-52
2021/01/24 04:49:30;;;;;;;1.30;1.00;;;4.30;97.20;;;;;;5092182;28;20745;-53
2021/01/24 04:51:57;;;;;;;1.30;1.20;;;4.20;97.20;;;;;;5090689;28;20649;-53
2021/01/24 04:54:24;;;;;;;1.80;1.70;;;4.20;97.50;;;;;;5097464;28;20659;-53
2021/01/24 04:56:51;;;;;;;1.40;1.30;;;4.20;97.60;;;;;;5112200;28;20686;-53
2021/01/24 04:59:17;;;;;;;1.43;1.37;;;4.20;97.70;;;;;;5112064;28;20666;-53
2021/01/24 05:01:44;;;;;;;1.53;1.37;;;4.40;97.80;;;;;;5112285;28;20643;-53
2021/01/24 05:04:11;;;;;;;1.70;1.60;;;4.40;97.50;;;;;;5111577;28;20663;-52
2021/01/24 05:06:38;;;;;;;1.37;1.27;;;4.40;97.70;;;;;;5111917;28;20670;-52
2021/01/24 05:09:05;;;;;;;1.60;1.50;;;4.40;97.10;;;;;;5110740;28;20728;-53
2021/01/24 05:11:32;;;;;;;1.60;1.47;;;4.50;97.00;;;;;;5111915;28;20691;-53
2021/01/24 05:14:23;;;;;;;2.30;2.20;;;4.50;96.80;;;;;;5111811;28;20639;-53
2021/01/24 05:16:51;;;;;;;1.60;1.50;;;4.60;96.50;;;;;;5091947;28;20702;-52
2021/01/24 05:19:17;;;;;;;1.60;1.37;;;4.50;96.60;;;;;;5112037;28;20658;-53
2021/01/24 05:21:46;;;;;;;2.43;2.17;;;4.50;96.70;;;;;;5112202;28;20640;-52
2021/01/24 05:24:14;;;;;;;1.60;1.47;;;4.50;96.90;;;;;;5111886;28;21182;-53
2021/01/24 05:26:42;;;;;;;2.07;1.70;;;4.50;97.00;;;;;;5111882;28;20635;-52
2021/01/24 05:29:18;;;;;;;1.60;1.50;;;4.50;96.80;;;;;;5111951;28;20623;-53
2021/01/24 05:31:45;;;;;;;3.00;1.90;;;4.50;96.90;;;;;;5111671;28;20679;-52
2021/01/24 05:34:15;;;;;;;2.83;2.53;;;4.40;97.00;;;;;;5112066;28;21137;-53
2021/01/24 05:36:42;;;;;;;2.13;1.87;;;4.40;97.00;;;;;;5111409;28;21047;-53
2021/01/24 05:39:09;;;;;;;2.10;1.67;;;4.40;96.70;;;;;;5111591;28;20658;-53
2021/01/24 05:41:36;;;;;;;3.97;2.83;;;4.40;96.70;;;;;;5111771;28;20658;-52
2021/01/24 05:44:03;;;;;;;4.80;2.47;;;4.30;96.60;;;;;;5111930;28;20651;-54
2021/01/24 05:46:33;;;;;;;3.37;3.10;;;4.30;96.90;;;;;;5110254;28;20665;-52
2021/01/24 05:48:59;;;;;;;5.30;4.80;;;4.40;96.80;;;;;;5111754;28;20655;-53
2021/01/24 05:51:26;;;;;;;3.27;2.97;;;4.40;96.70;;;;;;5111236;28;20687;-52
2021/01/24 05:53:53;;;;;;;2.97;2.60;;;4.40;96.10;;;;;;5110522;28;20667;-52
2021/01/24 05:56:21;;;;;;;5.57;3.87;;;4.40;95.50;;;;;;5111250;28;20745;-52
2021/01/24 05:58:53;;;;;;;3.57;3.30;;;4.40;95.30;;;;;;5111337;28;20655;-52
2021/01/24 06:01:20;;;;;;;4.87;3.13;;;4.40;95.30;;;;;;5111345;28;20655;-52
2021/01/24 06:03:46;;;;;;;3.83;3.53;;;4.50;95.10;;;;;;5111168;28;20758;-52
2021/01/24 06:06:13;;;;;;;3.23;2.57;;;4.40;94.60;;;;;;5111100;28;21241;-52
2021/01/24 06:08:40;;;;;;;3.53;3.23;;;4.30;94.70;;;;;;5110152;28;20693;-52
2021/01/24 06:11:07;;;;;;;4.37;3.37;;;4.30;94.80;;;;;;5110962;28;20687;-52
2021/01/24 06:13:35;;;;;;;3.17;2.50;;;4.30;94.90;;;;;;5111247;28;20754;-53
2021/01/24 06:16:05;;;;;;;7.13;3.43;;;4.40;94.90;;;;;;5111011;28;21006;-52
2021/01/24 06:18:36;;;;;;;2.73;2.53;;;4.40;94.50;;;;;;5111178;28;20619;-52
2021/01/24 06:21:03;;;;;;;3.20;2.80;;;4.30;94.10;;;;;;5110942;28;20646;-51
2021/01/24 06:23:33;;;;;;;4.90;3.17;;;4.30;94.10;;;;;;5111296;28;20668;-53
2021/01/24 06:26:02;;;;;;;2.87;2.67;;;4.20;93.90;;;;;;5111007;28;20687;-52
2021/01/24 06:28:30;;;;;;;1.85;1.75;;;4.20;94.40;;;;;;5110622;28;20663;-53
2021/01/24 06:30:58;;;;;;;3.23;2.93;;;4.20;93.90;;;;;;5111035;28;20264;-52
2021/01/24 06:33:25;;;;;;;3.20;2.60;;;4.20;94.50;;;;;;5110838;28;20665;-53
2021/01/24 06:35:55;;;;;;;2.47;2.27;;;4.10;94.00;;;;;;5110103;28;20724;-53
2021/01/24 06:38:27;;;;;;;2.77;2.57;;;4.20;94.30;;;;;;5110724;28;20715;-53
2021/01/24 06:40:53;;;;;;;1.93;1.03;;;4.30;94.20;;;;;;5089508;28;20651;-52
2021/01/24 06:43:37;;;;;;;2.00;1.80;;;4.20;93.70;;;;;;5090020;28;20975;-53
2021/01/24 06:46:05;;;;;;;5.13;2.40;;;4.20;94.10;;;;;;5092816;28;21328;-53
2021/01/24 06:48:40;;;;;;;2.90;2.70;;;4.20;94.00;;;;;;5094993;28;20615;-52
2021/01/24 06:51:35;;;;;;;2.00;1.77;;;4.20;93.70;;;;;;5110911;28;20694;-52
2021/01/24 06:54:03;;;;;;;1.95;1.75;;;4.30;93.90;;;;;;5110458;28;20649;-52
2021/01/24 06:56:39;;;;;;;2.73;2.00;;;4.20;93.50;;;;;;5109649;28;20369;-52
2021/01/24 06:59:06;;;;;;;4.53;2.13;;;4.10;93.70;;;;;;5100764;28;20627;-53
2021/01/24 07:01:34;;;;;;;1.97;1.80;;;4.20;94.40;;;;;;5109988;28;20644;-53
2021/01/24 07:04:43;;;;;;;2.47;2.27;;;4.20;94.10;;;;;;5100181;28;21269;-52
2021/01/24 07:07:35;;;;;;;1.77;1.43;;;4.20;94.20;;;;;;5101409;28;20710;-53
2021/01/24 07:10:09;;;;;;;3.00;2.80;;;4.20;93.90;;;;;;5108711;28;21174;-52
2021/01/24 07:12:40;;;;;;;4.10;2.50;;;4.20;93.50;;;;;;5101857;28;21056;-54
2021/01/24 07:15:08;;;;;;;3.37;3.17;;;4.20;94.20;;;;;;5100869;28;20730;-53
2021/01/24 07:17:35;;;;;;;2.57;2.20;;;4.30;94.70;;;;;;5109077;28;20677;-52
2021/01/24 07:20:03;;;;;;;2.50;2.23;;;4.40;94.50;;;;;;5101067;28;20662;-51
2021/01/24 07:22:31;;;;;;;3.20;2.90;;;4.40;93.80;;;;;;5109874;28;20635;-53
2021/01/24 07:24:57;;;;;;;3.50;3.20;;;4.40;93.70;;;;;;5108663;28;20619;-52
2021/01/24 07:27:26;;;;;;;3.80;2.70;;;4.50;93.60;;;;;;5100600;28;20755;-53
2021/01/24 07:29:52;;;;;;;3.27;2.60;;;4.30;93.70;;;;;;5108975;28;21033;-51
2021/01/24 07:32:20;;;;;;;3.23;2.90;;;4.30;93.80;;;;;;5097803;28;20681;-52
2021/01/24 07:34:48;;;;;;;3.93;3.03;;;4.30;94.10;;;;;;5104844;28;20624;-52
2021/01/24 07:37:15;;;;;;;1.97;1.50;;;4.20;93.80;;;;;;5108317;28;21281;-53
2021/01/24 07:39:43;;;;;;;3.80;2.93;;;4.30;94.20;;;;;;5108465;28;20655;-51
2021/01/24 07:42:10;;;;;;;2.50;2.13;;;4.40;94.10;;;;;;5100692;28;21183;-52
2021/01/24 07:44:37;;;;;;;4.33;4.03;;;4.40;94.10;;;;;;5109074;28;20662;-52
2021/01/24 07:47:04;;;;;;;2.55;2.15;;;4.30;93.60;;;;;;5108387;28;20655;-53
2021/01/24 07:49:30;;;;;;;2.20;2.00;;;4.30;94.10;;;;;;5108962;28;20708;-52
2021/01/24 07:51:58;;;;;;;2.88;2.10;;;4.30;93.40;;;;;;5110301;28;20737;-51
2021/01/24 07:54:25;;;;;;;3.40;2.97;;;4.40;93.90;;;;;;5083168;28;20220;-51
2021/01/24 07:56:51;;;;;;;1.90;1.80;;;4.30;94.00;;;;;;5108176;28;20683;-53
2021/01/24 07:59:18;;;;;;;2.15;1.95;;;4.30;94.60;;;;;;5109522;28;20651;-52
2021/01/24 08:01:45;;;;;;;2.80;2.60;;;4.20;94.30;;;;;;5106968;28;20198;-52
2021/01/24 08:04:12;;;;;;;2.60;1.60;;;4.20;94.60;;;;;;5111832;28;21202;-50
2021/01/24 08:06:39;;;;;;;2.43;1.83;;;4.20;94.50;;;;;;5107373;28;21191;-51
2021/01/24 08:09:08;;;;;;;2.20;2.10;;;4.20;94.20;;;;;;5107565;28;20667;-52
2021/01/24 08:11:34;;;;;;;3.20;2.43;;;4.20;94.50;;;;;;5113398;28;20675;-50
2021/01/24 08:14:02;;;;;;;4.78;2.85;;;4.30;94.90;;;;;;5113259;28;20654;-51
2021/01/24 08:16:30;;;;;;;1.73;1.63;;;4.30;94.40;;;;;;5113419;28;20593;-52
2021/01/24 08:18:58;;;;;;;2.53;2.33;;;4.20;94.40;;;;;;5113303;28;20934;-52
2021/01/24 08:21:25;;;;;;;3.13;2.67;;;4.30;94.30;;;;;;5113084;28;21284;-52
2021/01/24 08:23:53;;;;;;;2.40;2.20;;;4.30;95.10;;;;;;5109028;28;20663;-52
2021/01/24 08:26:21;;;;;;;2.33;1.83;;;4.30;94.50;;;;;;5101036;28;20680;-50
2021/01/24 08:28:47;;;;;;;2.57;2.37;;;4.30;94.50;;;;;;5101617;28;20953;-51
2021/01/24 08:31:17;;;;;;;3.10;2.73;;;4.30;94.70;;;;;;5103871;28;21032;-51
2021/01/24 08:33:44;;;;;;;3.80;3.50;;;4.30;94.80;;;;;;5102816;28;20684;-52
2021/01/24 08:36:13;;;;;;;2.63;2.37;;;4.30;94.50;;;;;;5105305;28;20697;-52
2021/01/24 08:38:40;;;;;;;2.95;2.75;;;4.40;94.60;;;;;;5104439;28;20628;-52
2021/01/24 08:41:07;;;;;;;3.60;3.30;;;4.50;95.00;;;;;;5103946;28;20212;-52
2021/01/24 08:43:34;;;;;;;2.93;2.40;;;4.50;94.40;;;;;;5103469;28;20662;-52
2021/01/24 08:46:20;;;;;;;3.20;2.43;;;4.50;94.90;;;;;;5104858;28;21245;-51
2021/01/24 08:49:01;;;;;;;4.40;4.00;;;4.50;94.90;;;;;;5102525;28;21143;-52
2021/01/24 08:51:41;;;;;;;3.25;3.03;;;4.40;94.30;;;;;;5099312;28;20693;-52
2021/01/24 08:54:15;;;;;;;2.30;2.10;;;4.30;94.50;;;;;;5100350;28;20221;-52
2021/01/24 08:56:42;;;;;;;3.43;3.13;;;4.30;94.60;;;;;;5100127;28;21183;-52
2021/01/24 08:59:26;;;;;;;2.67;2.47;;;4.40;95.30;;;;;;5103498;28;20662;-52
2021/01/24 09:01:54;;;;;;;4.37;3.23;;;4.40;94.60;;;;;;5101661;28;21194;-51
2021/01/24 09:04:25;;;;;;;4.90;2.90;;;4.40;94.30;;;;;;5099199;28;20701;-52
2021/01/24 09:07:08;;;;;;;2.80;2.60;;;4.50;94.80;;;;;;5100653;28;20687;-52
2021/01/24 09:09:36;;;;;;;6.10;2.23;;;4.40;94.30;;;;;;5103459;28;20232;-52
2021/01/24 09:12:03;;;;;;;5.13;3.70;;;4.40;94.60;;;;;;5102737;28;20733;-53
2021/01/24 09:14:31;;;;;;;5.03;4.00;;;4.40;94.90;;;;;;5103353;28;20246;-52
2021/01/24 09:17:02;;;;;;;7.65;3.22;;;4.50;95.20;;;;;;5095146;28;20667;-53
2021/01/24 09:19:28;;;;;;;3.80;3.50;;;4.50;95.10;;;;;;5102901;28;20562;-53
2021/01/24 09:21:55;;;;;;;3.80;3.50;;;4.50;94.60;;;;;;5084339;28;20654;-52
2021/01/24 09:24:22;;;;;;;3.90;3.10;;;4.40;94.70;;;;;;5102918;28;20619;-53
2021/01/24 09:26:49;;;;;;;7.20;4.50;;;4.30;94.90;;;;;;5102708;28;20656;-51
2021/01/24 09:29:16;;;;;;;3.35;3.05;;;4.30;95.50;;;;;;5102230;28;20700;-52
2021/01/24 09:31:43;;;;;;;3.20;2.90;;;4.40;95.50;;;;;;5102640;28;20358;-52
2021/01/24 09:34:10;;;;;;;3.90;3.63;;;4.40;95.90;;;;;;5102637;28;20715;-53
2021/01/24 09:36:37;;;;;;;3.57;3.27;;;4.30;95.30;;;;;;5102836;28;20686;-51
2021/01/24 09:39:05;;;;;;;4.30;2.37;;;4.30;95.60;;;;;;5102414;28;20656;-52
2021/01/24 09:41:31;;;;;;;3.90;3.60;;;4.40;95.90;;;;;;5102794;28;20977;-51
2021/01/24 09:43:58;;;;;;;3.37;3.07;;;4.50;96.40;;;;;;5102360;28;20627;-53
2021/01/24 09:46:25;;;;;;;3.90;3.60;;;4.50;96.20;;;;;;5099347;28;20683;-52
2021/01/24 09:48:53;;;;;;;3.20;2.67;;;4.60;96.20;;;;;;5099453;28;20662;-52
2021/01/24 09:51:19;;;;;;;5.23;3.70;;;4.60;96.10;;;;;;5103094;28;21178;-53
2021/01/24 09:53:50;;;;;;;3.37;3.10;;;4.60;95.80;;;;;;5100366;28;21163;-52
2021/01/24 09:56:17;;;;;;;3.90;3.53;;;4.60;95.60;;;;;;5106841;28;20696;-53
2021/01/24 09:58:43;;;;;;;3.90;2.90;;;4.60;95.50;;;;;;5098730;28;21026;-52
2021/01/24 10:01:10;;;;;;;5.90;4.13;;;4.70;96.00;;;;;;5099100;28;21148;-52
2021/01/24 10:03:37;;;;;;;5.23;4.73;;;4.60;95.50;;;;;;5101057;28;20644;-52
2021/01/24 10:06:05;;;;;;;4.10;3.70;;;4.60;95.30;;;;;;5098522;28;20687;-50
2021/01/24 10:08:32;;;;;;;5.27;4.77;;;4.60;95.70;;;;;;5100584;28;20706;-53
2021/01/24 10:10:59;;;;;;;4.57;4.00;;;4.70;95.50;;;;;;5098830;28;20660;-52
2021/01/24 10:13:25;;;;;;;4.70;4.30;;;4.70;95.30;;;;;;5111152;28;20687;-53
2021/01/24 10:15:52;;;;;;;4.83;4.30;;;4.80;95.70;;;;;;5109743;28;20658;-53
2021/01/24 10:18:19;;;;;;;4.77;4.37;;;4.80;95.00;;;;;;5110762;28;20620;-53
2021/01/24 10:20:46;;;;;;;3.63;3.15;;;4.70;95.20;;;;;;5106221;28;20651;-52
2021/01/24 10:23:14;;;;;;;4.90;4.22;;;4.70;94.90;;;;;;5110429;28;20234;-51
2021/01/24 10:25:41;;;;;;;4.00;3.67;;;4.70;95.00;;;;;;5110830;28;20201;-52
2021/01/24 10:28:08;;;;;;;4.93;4.53;;;4.80;95.10;;;;;;5110622;28;20644;-53
2021/01/24 10:30:35;;;;;;;4.30;3.90;;;4.80;95.10;;;;;;5110731;28;20657;-52
2021/01/24 10:33:01;;;;;;;5.50;3.67;;;4.90;95.10;;;;;;5108438;28;20748;-51
2021/01/24 10:35:28;;;;;;;5.23;3.87;;;5.00;95.20;;;;;;5101347;28;20644;-52
2021/01/24 10:37:55;;;;;;;3.70;3.30;;;5.00;94.60;;;;;;5090911;22;21305;-61
2021/01/24 10:40:23;;;;;;;4.43;3.30;;;5.00;95.00;;;;;;5071759;28;20605;-59
2021/01/24 10:42:50;;;;;;;4.03;3.63;;;4.90;94.80;;;;;;5071281;28;21253;-59
2021/01/24 10:45:17;;;;;;;5.30;2.93;;;4.90;94.60;;;;;;5070881;28;20621;-60
2021/01/24 10:47:44;;;;;;;4.47;4.07;;;4.90;94.30;;;;;;5067216;28;20660;-60
2021/01/24 10:50:12;;;;;;;4.60;4.20;;;5.00;94.90;;;;;;5037060;28;20626;-60
2021/01/24 10:52:39;;;;;;;4.23;3.07;;;5.00;94.60;;;;;;5066776;28;20685;-59
2021/01/24 10:55:07;;;;;;;6.60;5.40;;;5.00;94.50;;;;;;5071473;28;20736;-60
2021/01/24 10:57:35;;;;;;;6.47;5.57;;;5.10;94.60;;;;;;5071883;28;20657;-61
2021/01/24 11:00:02;;;;;;;3.93;3.47;;;5.20;94.90;;;;;;5071184;28;21285;-61
2021/01/24 11:02:29;;;;;;;5.90;4.30;;;5.20;94.70;;;;;;5057236;28;20610;-59
2021/01/24 11:04:57;;;;;;;5.60;4.90;;;5.30;94.50;;;;;;5050957;28;20630;-59
2021/01/24 11:07:24;;;;;;;5.80;4.33;;;5.30;94.30;;;;;;5051596;28;20692;-58
2021/01/24 11:09:52;;;;;;;5.53;3.37;;;5.30;94.20;;;;;;5053894;28;21001;-58
2021/01/24 11:12:19;;;;;;;2.60;2.40;;;5.30;94.60;;;;;;5058644;28;20720;-58
2021/01/24 11:14:47;;;;;;;3.80;3.50;;;5.30;94.30;;;;;;5054622;28;20661;-58
2021/01/24 11:17:14;;;;;;;4.90;4.40;;;5.10;93.90;;;;;;5057902;28;20665;-59
2021/01/24 11:19:44;;;;;;;5.80;4.30;;;5.10;94.30;;;;;;5058542;28;20614;-59
2021/01/24 11:22:11;;;;;;;3.50;3.20;;;5.00;94.30;;;;;;5056774;28;20625;-60
2021/01/24 11:24:38;;;;;;;3.80;3.40;;;5.10;94.40;;;;;;5056613;28;21278;-59
2021/01/24 11:27:07;;;;;;;6.07;5.27;;;5.10;94.60;;;;;;5054001;28;20676;-58
2021/01/24 11:29:34;;;;;;;4.90;3.73;;;5.30;94.70;;;;;;5075766;28;20610;-59
2021/01/24 11:32:02;;;;;;;3.20;2.50;;;5.30;94.10;;;;;;5071018;28;20642;-60
2021/01/24 11:34:29;;;;;;;5.00;4.50;;;5.30;93.70;;;;;;5058149;28;20618;-59
2021/01/24 11:36:56;;;;;;;5.83;5.40;;;5.20;93.60;;;;;;5065806;28;20703;-60
2021/01/24 11:39:23;;;;;;;4.67;3.90;;;5.30;94.60;;;;;;5065775;28;21080;-58
2021/01/24 11:41:50;;;;;;;14.60;4.60;;;5.40;94.60;;;;;;5054807;28;20621;-58
2021/01/24 11:44:16;;;;;;;7.80;3.80;;;5.40;94.10;;;;;;5064572;28;20650;-58
2021/01/24 11:46:43;;;;;;;4.70;3.73;;;5.50;94.20;;;;;;5055979;28;20692;-59
2021/01/24 11:49:11;;;;;;;5.47;4.33;;;5.50;93.60;;;;;;5071780;28;20617;-59
2021/01/24 11:51:38;;;;;;;3.37;3.03;;;5.50;93.40;;;;;;5074341;28;20622;-58
2021/01/24 11:54:05;;;;;;;7.20;4.43;;;5.50;93.80;;;;;;5073781;28;20701;-58
2021/01/24 11:56:32;;;;;;;5.07;3.90;;;5.60;93.40;;;;;;5068483;28;20649;-58
2021/01/24 11:58:59;;;;;;;4.70;4.30;;;5.50;92.50;;;;;;5073963;28;20644;-59
2021/01/24 12:01:25;;;;;;;5.50;5.03;;;5.50;93.20;;;;;;5074234;28;20667;-60
2021/01/24 12:03:52;;;;;;;4.37;3.53;;;5.50;93.30;;;;;;5073766;28;21168;-61
2021/01/24 12:06:20;;;;;;;4.60;3.80;;;5.60;93.20;;;;;;5072499;28;20625;-59
2021/01/24 12:08:47;;;;;;;5.27;4.83;;;5.60;92.90;;;;;;5073939;28;20664;-58
2021/01/24 12:11:13;;;;;;;7.53;4.80;;;5.60;93.10;;;;;;5074040;28;20653;-58
2021/01/24 12:13:40;;;;;;;5.57;3.20;;;5.60;92.70;;;;;;5073859;28;21122;-59
2021/01/24 12:16:07;;;;;;;4.53;4.13;;;5.60;92.50;;;;;;5073234;28;20722;-60
2021/01/24 12:18:34;;;;;;;4.83;4.10;;;5.70;93.30;;;;;;5073104;28;20657;-58
2021/01/24 12:21:00;;;;;;;5.93;5.20;;;5.60;93.00;;;;;;5071613;28;20662;-59
2021/01/24 12:23:28;;;;;;;5.30;3.67;;;5.60;92.40;;;;;;5072708;28;21176;-59
2021/01/24 12:25:55;;;;;;;5.30;4.80;;;5.60;93.30;;;;;;5072087;28;20668;-60
2021/01/24 12:28:22;;;;;;;5.30;4.77;;;5.70;92.60;;;;;;5072703;28;21246;-59
2021/01/24 12:30:48;;;;;;;5.43;4.70;;;5.70;92.70;;;;;;5071950;28;21029;-60
2021/01/24 12:33:15;;;;;;;4.83;4.43;;;5.80;92.80;;;;;;5064900;28;20649;-60
2021/01/24 12:35:42;;;;;;;3.97;3.40;;;5.90;92.40;;;;;;5058988;28;20653;-60
2021/01/24 12:38:09;;;;;;;5.40;4.00;;;5.90;91.90;;;;;;5067693;28;20695;-60
2021/01/24 12:40:37;;;;;;;4.93;4.53;;;6.00;92.70;;;;;;5071712;28;20625;-59
2021/01/24 12:43:03;;;;;;;4.37;4.03;;;5.90;91.70;;;;;;5073197;28;20657;-59
2021/01/24 12:45:30;;;;;;;3.90;3.47;;;6.00;92.10;;;;;;5073327;28;20657;-59
2021/01/24 12:47:57;;;;;;;8.20;3.10;;;6.00;91.30;;;;;;5072351;28;20697;-59
2021/01/24 12:50:24;;;;;;;5.17;3.97;;;5.90;91.40;;;;;;5065892;28;20653;-60
2021/01/24 12:52:51;;;;;;;8.43;4.70;;;5.90;91.60;;;;;;5064105;28;20687;-61
2021/01/24 12:55:18;;;;;;;4.40;4.00;;;5.90;91.40;;;;;;5073020;28;20654;-59
2021/01/24 12:57:45;;;;;;;3.90;3.47;;;6.00;91.80;;;;;;5062999;28;20689;-60
2021/01/24 13:00:13;;;;;;;6.57;4.27;;;6.00;91.90;;;;;;5073085;28;20654;-61
2021/01/24 13:02:40;;;;;;;5.30;4.80;;;6.00;91.40;;;;;;5072890;28;20669;-59